createdAt,value
2023-01-04T00:00:37.891Z,7.8
2023-01-04T00:01:46.169Z,7.8
2023-01-04T00:02:54.603Z,7.8
2023-01-04T00:04:03.098Z,10.5
2023-01-04T00:05:11.390Z,10.5
2023-01-04T00:06:19.747Z,10.5
2023-01-04T00:07:28.222Z,9
2023-01-04T00:08:36.543Z,9
2023-01-04T00:09:44.861Z,9
2023-01-04T00:10:53.413Z,8.9
2023-01-04T00:12:01.744Z,8.9
2023-01-04T00:13:10.057Z,8.9
2023-01-04T00:14:18.619Z,8
2023-01-04T00:15:26.997Z,8
2023-01-04T00:16:35.406Z,8
2023-01-04T00:17:43.834Z,8.4
2023-01-04T00:18:52.157Z,8.4
2023-01-04T00:20:00.481Z,8.4
2023-01-04T00:21:08.988Z,9.3
2023-01-04T00:22:17.363Z,9.3
2023-01-04T00:23:25.679Z,9.3
2023-01-04T00:24:34.215Z,11.2
2023-01-04T00:25:42.540Z,11.2
2023-01-04T00:26:50.883Z,11.2
2023-01-04T00:27:59.481Z,8
2023-01-04T00:29:07.813Z,8
2023-01-04T00:30:16.165Z,8
2023-01-04T00:31:24.794Z,8.7
2023-01-04T00:32:33.037Z,8.7
2023-01-04T00:33:41.405Z,8.7
2023-01-04T00:34:49.951Z,9.3
2023-01-04T00:35:58.287Z,9.3
2023-01-04T00:37:06.601Z,9.3
2023-01-04T00:38:15.171Z,7.7
2023-01-04T00:39:23.502Z,7.7
2023-01-04T00:40:31.832Z,7.7
2023-01-04T00:42:48.701Z,9.1
2023-01-04T00:43:57.037Z,9.1
2023-01-04T00:45:05.652Z,9.8
2023-01-04T00:46:13.962Z,9.8
2023-01-04T00:47:22.256Z,9.8
2023-01-04T00:48:30.825Z,11.3
2023-01-04T00:49:39.141Z,11.3
2023-01-04T00:50:47.477Z,11.3
2023-01-04T00:51:56.067Z,6.9
2023-01-04T00:53:04.375Z,6.9
2023-01-04T00:54:12.740Z,6.9
2023-01-04T00:55:21.259Z,9.8
2023-01-04T00:56:29.615Z,9.8
2023-01-04T00:57:37.953Z,9.8
2023-01-04T00:58:46.525Z,9.1
2023-01-04T00:59:54.841Z,9.1
2023-01-04T01:01:03.151Z,9.1
2023-01-04T01:02:11.917Z,9
2023-01-04T01:03:20.149Z,9
2023-01-04T01:04:28.498Z,9
2023-01-04T01:05:36.939Z,10.8
2023-01-04T01:06:45.279Z,10.8
2023-01-04T01:07:53.622Z,10.8
2023-01-04T01:09:02.164Z,8.7
2023-01-04T01:10:10.554Z,8.7
2023-01-04T01:11:18.850Z,8.7
2023-01-04T01:12:27.376Z,8.1
2023-01-04T01:13:35.721Z,8.1
2023-01-04T01:14:44.067Z,8.1
2023-01-04T01:15:52.647Z,10.3
2023-01-04T01:17:00.977Z,10.3
2023-01-04T01:18:09.263Z,10.3
2023-01-04T01:19:17.816Z,9.4
2023-01-04T01:20:26.199Z,9.4
2023-01-04T01:21:34.508Z,9.4
2023-01-04T01:22:43.033Z,8.5
2023-01-04T01:23:51.370Z,8.5
2023-01-04T01:24:59.707Z,8.5
2023-01-04T01:26:08.262Z,7.7
2023-01-04T01:27:16.598Z,7.7
2023-01-04T01:28:24.948Z,7.7
2023-01-04T01:29:33.497Z,7.2
2023-01-04T01:30:41.922Z,7.2
2023-01-04T01:31:50.242Z,7.2
2023-01-04T01:32:58.682Z,7.6
2023-01-04T01:34:07.020Z,7.6
2023-01-04T01:35:15.367Z,7.6
2023-01-04T01:36:23.922Z,6.8
2023-01-04T01:37:32.259Z,6.8
2023-01-04T01:38:40.603Z,6.8
2023-01-04T01:39:49.128Z,8.5
2023-01-04T01:40:57.452Z,8.5
2023-01-04T01:42:05.813Z,8.5
2023-01-04T01:43:14.321Z,7.9
2023-01-04T01:44:22.680Z,7.9
2023-01-04T01:45:31.050Z,7.9
2023-01-04T01:46:39.667Z,8
2023-01-04T01:47:47.930Z,8
2023-01-04T01:48:56.226Z,8
2023-01-04T01:50:04.760Z,6.4
2023-01-04T01:51:13.099Z,6.4
2023-01-04T01:52:21.427Z,6.4
2023-01-04T01:53:29.973Z,6.7
2023-01-04T01:54:38.305Z,6.7
2023-01-04T01:55:46.646Z,6.7
2023-01-04T01:56:55.191Z,8.3
2023-01-04T01:58:03.554Z,8.3
2023-01-04T01:59:11.853Z,8.3
2023-01-04T02:00:20.390Z,9.2
2023-01-04T02:01:28.823Z,9.2
2023-01-04T02:02:37.256Z,9.2
2023-01-04T02:03:45.698Z,7
2023-01-04T02:04:53.965Z,7
2023-01-04T02:06:02.280Z,7
2023-01-04T02:07:10.831Z,7.2
2023-01-04T02:08:19.158Z,7.2
2023-01-04T02:09:27.472Z,7.2
2023-01-04T02:10:36.042Z,8.8
2023-01-04T02:11:44.367Z,8.8
2023-01-04T02:12:52.702Z,8.8
2023-01-04T02:14:01.287Z,7.9
2023-01-04T02:15:09.582Z,7.9
2023-01-04T02:16:17.986Z,7.9
2023-01-04T02:17:26.463Z,7.7
2023-01-04T02:18:34.826Z,7.7
2023-01-04T02:19:43.133Z,7.7
2023-01-04T02:20:51.687Z,8.2
2023-01-04T02:21:59.996Z,8.2
2023-01-04T02:23:08.349Z,8.2
2023-01-04T02:24:16.898Z,7.3
2023-01-04T02:25:25.231Z,7.3
2023-01-04T02:26:33.551Z,7.3
2023-01-04T02:27:42.082Z,7.7
2023-01-04T02:28:50.406Z,7.7
2023-01-04T02:29:58.733Z,7.7
2023-01-04T02:31:07.286Z,6.7
2023-01-04T02:32:15.568Z,6.7
2023-01-04T02:33:23.891Z,6.7
2023-01-04T02:34:32.413Z,7.8
2023-01-04T02:35:40.746Z,7.8
2023-01-04T02:36:49.084Z,7.8
2023-01-04T02:37:57.625Z,7.2
2023-01-04T02:39:05.956Z,7.2
2023-01-04T02:40:14.281Z,7.2
2023-01-04T02:41:22.798Z,8
2023-01-04T02:42:31.135Z,8
2023-01-04T02:43:39.462Z,8
2023-01-04T02:44:48.008Z,8.3
2023-01-04T02:45:56.329Z,8.3
2023-01-04T02:47:04.716Z,8.3
2023-01-04T02:48:13.147Z,6.7
2023-01-04T02:49:21.460Z,6.7
2023-01-04T02:50:29.802Z,6.7
2023-01-04T02:51:38.323Z,8.6
2023-01-04T02:52:46.651Z,8.6
2023-01-04T02:53:54.990Z,8.6
2023-01-04T02:55:03.549Z,7.8
2023-01-04T02:56:11.866Z,7.8
2023-01-04T02:57:20.202Z,7.8
2023-01-04T02:58:28.737Z,8.5
2023-01-04T02:59:37.055Z,8.5
2023-01-04T03:00:45.407Z,8.5
2023-01-04T03:01:54.132Z,8.4
2023-01-04T03:03:02.460Z,8.4
2023-01-04T03:04:10.763Z,8.4
2023-01-04T03:05:19.177Z,9.4
2023-01-04T03:06:27.506Z,9.4
2023-01-04T03:07:35.887Z,9.4
2023-01-04T03:08:44.405Z,9.7
2023-01-04T03:09:52.734Z,9.7
2023-01-04T03:11:01.051Z,9.7
2023-01-04T03:12:09.596Z,7
2023-01-04T03:13:17.933Z,7
2023-01-04T03:14:31.202Z,7
2023-01-04T03:15:34.796Z,8.6
2023-01-04T03:16:43.189Z,8.6
2023-01-04T03:17:51.503Z,8.6
2023-01-04T03:19:00.035Z,11.6
2023-01-04T03:20:08.368Z,11.6
2023-01-04T03:21:16.693Z,11.6
2023-01-04T03:22:25.218Z,9.1
2023-01-04T03:23:33.544Z,9.1
2023-01-04T03:24:41.882Z,9.1
2023-01-04T03:25:50.479Z,9.8
2023-01-04T03:26:58.769Z,9.8
2023-01-04T03:28:07.092Z,9.8
2023-01-04T03:29:15.647Z,10.9
2023-01-04T03:30:23.956Z,10.9
2023-01-04T03:31:32.368Z,10.9
2023-01-04T03:32:40.782Z,9.9
2023-01-04T03:33:49.155Z,9.9
2023-01-04T03:34:57.467Z,9.9
2023-01-04T03:36:06.018Z,10.2
2023-01-04T03:37:14.324Z,10.2
2023-01-04T03:38:22.669Z,10.2
2023-01-04T03:39:31.200Z,9.8
2023-01-04T03:40:39.536Z,9.8
2023-01-04T03:41:47.867Z,9.8
2023-01-04T03:42:56.396Z,11.8
2023-01-04T03:44:04.726Z,11.8
2023-01-04T03:45:13.043Z,11.8
2023-01-04T03:46:21.610Z,9.1
2023-01-04T03:47:29.862Z,9.1
2023-01-04T03:48:38.190Z,9.1
2023-01-04T03:49:46.752Z,11.2
2023-01-04T03:50:55.057Z,11.2
2023-01-04T03:52:03.407Z,11.2
2023-01-04T03:53:11.936Z,10.1
2023-01-04T03:54:20.272Z,10.1
2023-01-04T03:55:28.594Z,10.1
2023-01-04T03:56:37.122Z,9.4
2023-01-04T03:57:45.462Z,9.4
2023-01-04T03:58:53.817Z,9.4
2023-01-04T04:00:02.331Z,10.4
2023-01-04T04:01:10.777Z,10.4
2023-01-04T04:02:19.033Z,10.4
2023-01-04T04:03:27.540Z,10.2
2023-01-04T04:04:35.849Z,10.2
2023-01-04T04:05:44.193Z,10.2
2023-01-04T04:06:52.686Z,9.4
2023-01-04T04:08:01.002Z,9.4
2023-01-04T04:09:09.351Z,9.4
2023-01-04T04:10:17.901Z,10.8
2023-01-04T04:11:26.224Z,10.8
2023-01-04T04:12:34.568Z,10.8
2023-01-04T04:13:43.123Z,10.1
2023-01-04T04:14:51.442Z,10.1
2023-01-04T04:15:59.764Z,10.1
2023-01-04T04:17:08.295Z,10.6
2023-01-04T04:18:16.603Z,10.6
2023-01-04T04:19:24.955Z,10.6
2023-01-04T04:20:33.497Z,11
2023-01-04T04:21:41.852Z,11
2023-01-04T04:22:50.159Z,11
2023-01-04T04:23:58.716Z,11
2023-01-04T04:25:07.033Z,11
2023-01-04T04:26:15.356Z,11
2023-01-04T04:27:23.889Z,9.2
2023-01-04T04:28:32.218Z,9.2
2023-01-04T04:29:40.546Z,9.2
2023-01-04T04:30:49.089Z,9.7
2023-01-04T04:31:57.455Z,9.7
2023-01-04T04:33:05.778Z,9.7
2023-01-04T04:34:14.387Z,11.3
2023-01-04T04:35:22.717Z,11.3
2023-01-04T04:36:31.074Z,11.3
2023-01-04T04:37:39.615Z,11.1
2023-01-04T04:38:47.947Z,11.1
2023-01-04T04:39:56.232Z,11.1
2023-01-04T04:41:04.827Z,9.6
2023-01-04T04:42:13.177Z,9.6
2023-01-04T04:43:21.508Z,9.6
2023-01-04T04:44:30.065Z,8.5
2023-01-04T04:45:38.427Z,8.5
2023-01-04T04:46:46.775Z,8.5
2023-01-04T04:47:55.289Z,11.1
2023-01-04T04:49:03.672Z,11.1
2023-01-04T04:50:11.992Z,11.1
2023-01-04T04:51:20.531Z,8.4
2023-01-04T04:52:28.874Z,8.4
2023-01-04T04:53:37.241Z,8.4
2023-01-04T04:54:45.775Z,9
2023-01-04T04:55:54.115Z,9
2023-01-04T04:57:02.457Z,9
2023-01-04T04:58:10.996Z,7.3
2023-01-04T04:59:19.346Z,7.3
2023-01-04T05:00:27.890Z,7.3
2023-01-04T05:01:36.573Z,9.4
2023-01-04T05:02:44.898Z,9.4
2023-01-04T05:03:53.111Z,9.4
2023-01-04T05:05:01.677Z,9.2
2023-01-04T05:06:10.021Z,9.2
2023-01-04T05:07:18.371Z,9.2
2023-01-04T05:08:26.923Z,7.7
2023-01-04T05:09:35.282Z,7.7
2023-01-04T05:10:43.598Z,7.7
2023-01-04T05:11:52.116Z,8.4
2023-01-04T05:13:00.443Z,8.4
2023-01-04T05:14:08.775Z,8.4
2023-01-04T05:15:17.315Z,9.5
2023-01-04T05:16:25.667Z,9.5
2023-01-04T05:17:33.980Z,9.5
2023-01-04T05:18:42.509Z,8.3
2023-01-04T05:19:50.861Z,8.3
2023-01-04T05:20:59.195Z,8.3
2023-01-04T05:22:07.737Z,10.4
2023-01-04T05:23:16.072Z,10.4
2023-01-04T05:24:24.422Z,10.4
2023-01-04T05:25:33.006Z,10.9
2023-01-04T05:26:41.301Z,10.9
2023-01-04T05:27:49.625Z,10.9
2023-01-04T05:28:58.165Z,9.3
2023-01-04T05:30:06.497Z,9.3
2023-01-04T05:31:14.939Z,9.3
2023-01-04T05:32:23.376Z,10.9
2023-01-04T05:33:31.710Z,10.9
2023-01-04T05:34:40.054Z,10.9
2023-01-04T05:35:48.617Z,13.4
2023-01-04T05:36:56.951Z,13.4
2023-01-04T05:38:05.297Z,13.4
2023-01-04T05:39:13.851Z,11.2
2023-01-04T05:40:22.190Z,11.2
2023-01-04T05:41:30.574Z,11.2
2023-01-04T05:42:39.100Z,11.3
2023-01-04T05:43:47.445Z,11.3
2023-01-04T05:44:55.792Z,11.3
2023-01-04T05:46:04.379Z,12
2023-01-04T05:47:14.998Z,12
2023-01-04T05:48:21.011Z,12
2023-01-04T05:49:29.563Z,12.6
2023-01-04T05:50:37.906Z,12.6
2023-01-04T05:51:46.236Z,12.6
2023-01-04T05:52:54.799Z,12.2
2023-01-04T05:54:03.128Z,12.2
2023-01-04T05:55:11.446Z,12.2
2023-01-04T05:56:20.021Z,10.9
2023-01-04T05:57:28.376Z,10.9
2023-01-04T05:58:36.771Z,10.9
2023-01-04T05:59:45.320Z,11.5
2023-01-04T06:00:53.684Z,11.5
2023-01-04T06:02:02.203Z,11.5
2023-01-04T06:03:10.767Z,13.3
2023-01-04T06:04:18.966Z,13.3
2023-01-04T06:05:27.298Z,13.3
2023-01-04T06:06:35.836Z,11.4
2023-01-04T06:07:44.170Z,11.4
2023-01-04T06:08:52.516Z,11.4
2023-01-04T06:10:01.063Z,12.8
2023-01-04T06:11:09.398Z,12.8
2023-01-04T06:12:17.724Z,12.8
2023-01-04T06:13:26.300Z,11
2023-01-04T06:14:34.621Z,11
2023-01-04T06:15:43.437Z,11
2023-01-04T06:16:51.512Z,10.8
2023-01-04T06:17:59.812Z,10.8
2023-01-04T06:19:08.151Z,10.8
2023-01-04T06:20:16.725Z,11.4
2023-01-04T06:21:25.056Z,11.4
2023-01-04T06:22:33.396Z,11.4
2023-01-04T06:23:41.918Z,9.5
2023-01-04T06:24:50.246Z,9.5
2023-01-04T06:25:58.571Z,9.5
2023-01-04T06:27:07.670Z,10
2023-01-04T06:28:16.007Z,10
2023-01-04T06:29:24.396Z,10
2023-01-04T06:30:32.988Z,8.3
2023-01-04T06:31:41.243Z,8.3
2023-01-04T06:32:49.583Z,8.3
2023-01-04T06:33:58.127Z,9.1
2023-01-04T06:35:06.513Z,9.1
2023-01-04T06:36:19.656Z,9.1
2023-01-04T06:37:23.465Z,8
2023-01-04T06:38:31.810Z,8
2023-01-04T06:39:40.219Z,8
2023-01-04T06:40:48.807Z,7
2023-01-04T06:42:03.894Z,7
2023-01-04T06:43:05.497Z,7
2023-01-04T06:44:14.054Z,9.1
2023-01-04T06:45:22.419Z,9.1
2023-01-04T06:46:30.805Z,9.1
2023-01-04T06:47:39.312Z,8
2023-01-04T06:48:47.672Z,8
2023-01-04T06:49:56.016Z,8
2023-01-04T06:51:04.631Z,8.3
2023-01-04T06:52:12.996Z,8.3
2023-01-04T06:53:21.351Z,8.3
2023-01-04T06:54:29.946Z,7.4
2023-01-04T06:55:38.276Z,7.4
2023-01-04T06:56:46.693Z,7.4
2023-01-04T06:57:59.478Z,8.1
2023-01-04T06:59:03.566Z,8.1
2023-01-04T07:00:11.943Z,8.1
2023-01-04T07:01:20.615Z,8
2023-01-04T07:02:28.955Z,8
2023-01-04T07:03:37.223Z,8
2023-01-04T07:04:45.853Z,10.7
2023-01-04T07:05:54.100Z,10.7
2023-01-04T07:07:02.445Z,10.7
2023-01-04T07:08:11.005Z,8.8
2023-01-04T07:09:19.337Z,8.8
2023-01-04T07:10:27.669Z,8.8
2023-01-04T07:11:36.224Z,7.4
2023-01-04T07:12:44.579Z,7.4
2023-01-04T07:13:53.050Z,7.4
2023-01-04T07:15:01.493Z,7.8
2023-01-04T07:16:09.908Z,7.8
2023-01-04T07:17:18.215Z,7.8
2023-01-04T07:18:26.736Z,7.3
2023-01-04T07:19:35.103Z,7.3
2023-01-04T07:20:43.459Z,7.3
2023-01-04T07:21:52.122Z,7.6
2023-01-04T07:23:00.471Z,7.6
2023-01-04T07:24:08.843Z,7.6
2023-01-04T07:25:17.406Z,18.9
2023-01-04T07:26:25.748Z,18.9
2023-01-04T07:27:34.097Z,18.9
2023-01-04T07:28:42.671Z,32.5
2023-01-04T07:29:51.056Z,32.5
2023-01-04T07:30:59.471Z,32.5
2023-01-04T07:32:13.610Z,22.6
2023-01-04T07:33:16.352Z,22.6
2023-01-04T07:34:24.705Z,22.6
2023-01-04T07:35:33.272Z,16.700001
2023-01-04T07:36:41.645Z,16.700001
2023-01-04T07:37:55.820Z,16.700001
2023-01-04T07:38:58.563Z,14.3
2023-01-04T07:40:06.933Z,14.3
2023-01-04T07:41:15.267Z,14.3
2023-01-04T07:42:23.825Z,24.299999
2023-01-04T07:43:32.190Z,24.299999
2023-01-04T07:44:40.547Z,24.299999
2023-01-04T07:45:49.176Z,31.299999
2023-01-04T07:46:57.482Z,31.299999
2023-01-04T07:48:05.838Z,31.299999
2023-01-04T07:49:17.258Z,82.300003
2023-01-04T07:50:22.749Z,82.300003
2023-01-04T07:51:31.119Z,82.300003
2023-01-04T07:52:39.653Z,7.1
2023-01-04T07:53:48.002Z,7.1
2023-01-04T07:54:56.367Z,7.1
2023-01-04T07:56:04.933Z,8.4
2023-01-04T07:57:13.306Z,8.4
2023-01-04T07:58:21.667Z,8.4
2023-01-04T07:59:30.241Z,9.9
2023-01-04T08:00:38.593Z,9.9
2023-01-04T08:01:47.053Z,9.9
2023-01-04T08:02:55.729Z,8
2023-01-04T08:04:03.902Z,8
2023-01-04T08:05:12.339Z,8
2023-01-04T08:06:20.820Z,7.9
2023-01-04T08:07:29.178Z,7.9
2023-01-04T08:08:37.537Z,7.9
2023-01-04T08:09:46.140Z,8.2
2023-01-04T08:10:54.492Z,8.2
2023-01-04T08:12:02.834Z,8.2
2023-01-04T08:13:11.441Z,16
2023-01-04T08:14:19.805Z,16
2023-01-04T08:15:28.263Z,16
2023-01-04T08:16:36.860Z,8.3
2023-01-04T08:17:45.054Z,8.3
2023-01-04T08:18:53.434Z,8.3
2023-01-04T08:20:01.986Z,11.6
2023-01-04T08:21:10.445Z,11.6
2023-01-04T08:22:18.700Z,11.6
2023-01-04T08:23:27.267Z,8.8
2023-01-04T08:24:35.629Z,8.8
2023-01-04T08:25:43.986Z,8.8
2023-01-04T08:26:52.521Z,9.2
2023-01-04T08:28:00.875Z,9.2
2023-01-04T08:29:09.246Z,9.2
2023-01-04T08:30:17.804Z,31.5
2023-01-04T08:31:26.259Z,31.5
2023-01-04T08:32:34.518Z,31.5
2023-01-04T08:33:43.093Z,13.7
2023-01-04T08:34:51.442Z,13.7
2023-01-04T08:35:59.813Z,13.7
2023-01-04T08:37:08.456Z,27.700001
2023-01-04T08:38:56.008Z,27.700001
2023-01-04T08:39:25.075Z,27.700001
2023-01-04T08:40:58.455Z,128.5
2023-01-04T08:41:57.735Z,128.5
2023-01-04T08:42:50.322Z,128.5
2023-01-04T08:43:58.879Z,79.900002
2023-01-04T08:45:07.242Z,79.900002
2023-01-04T08:46:15.669Z,79.900002
2023-01-04T08:47:24.134Z,68.199997
2023-01-04T08:48:32.484Z,68.199997
2023-01-04T08:49:40.871Z,68.199997
2023-01-04T08:50:49.429Z,24.700001
2023-01-04T08:51:57.782Z,24.700001
2023-01-04T08:53:06.160Z,24.700001
2023-01-04T08:54:14.697Z,24.299999
2023-01-04T08:55:23.630Z,24.299999
2023-01-04T08:56:31.371Z,24.299999
2023-01-04T08:57:39.915Z,10
2023-01-04T08:58:48.255Z,10
2023-01-04T08:59:56.590Z,10
2023-01-04T09:01:05.144Z,9.9
2023-01-04T09:02:13.572Z,9.9
2023-01-04T09:03:21.848Z,9.9
2023-01-04T09:04:30.414Z,7.3
2023-01-04T09:05:38.688Z,7.3
2023-01-04T09:06:47.020Z,7.3
2023-01-04T09:07:55.556Z,23.9
2023-01-04T09:09:03.949Z,23.9
2023-01-04T09:10:12.262Z,23.9
2023-01-04T09:11:20.812Z,9.5
2023-01-04T09:12:29.140Z,9.5
2023-01-04T09:13:37.470Z,9.5
2023-01-04T09:14:46.011Z,12.9
2023-01-04T09:15:54.362Z,12.9
2023-01-04T09:17:02.680Z,12.9
2023-01-04T09:18:30.680Z,14.5
2023-01-04T09:19:22.057Z,14.5
2023-01-04T09:20:27.927Z,14.5
2023-01-04T09:21:36.508Z,24.1
2023-01-04T09:22:44.786Z,24.1
2023-01-04T09:23:53.137Z,24.1
2023-01-04T09:25:01.739Z,9.7
2023-01-04T09:26:10.028Z,9.7
2023-01-04T09:27:18.347Z,9.7
2023-01-04T09:28:26.895Z,19.4
2023-01-04T09:29:35.238Z,19.4
2023-01-04T09:30:43.595Z,19.4
2023-01-04T09:31:52.198Z,8.2
2023-01-04T09:33:00.462Z,8.2
2023-01-04T09:34:17.599Z,8.2
2023-01-04T09:35:17.335Z,9.7
2023-01-04T09:36:25.666Z,9.7
2023-01-04T09:37:34.007Z,9.7
2023-01-04T09:38:42.562Z,6.7
2023-01-04T09:39:50.898Z,6.7
2023-01-04T09:40:59.252Z,6.7
2023-01-04T09:42:07.773Z,9.2
2023-01-04T09:43:19.745Z,9.2
2023-01-04T09:44:30.591Z,9.2
2023-01-04T09:45:33.003Z,7.1
2023-01-04T09:46:41.401Z,7.1
2023-01-04T09:47:49.672Z,7.1
2023-01-04T09:48:58.229Z,7.4
2023-01-04T09:50:06.587Z,7.4
2023-01-04T09:51:14.918Z,7.4
2023-01-04T09:52:23.458Z,9.4
2023-01-04T09:53:31.812Z,9.4
2023-01-04T09:54:40.182Z,9.4
2023-01-04T09:55:48.814Z,7.4
2023-01-04T09:56:57.275Z,7.4
2023-01-04T09:58:05.409Z,7.4
2023-01-04T09:59:13.966Z,9.7
2023-01-04T10:00:22.327Z,9.7
2023-01-04T10:01:30.771Z,9.7
2023-01-04T10:02:39.376Z,8.1
2023-01-04T10:03:47.672Z,8.1
2023-01-04T10:04:55.884Z,8.1
2023-01-04T10:06:04.416Z,7.4
2023-01-04T10:07:12.762Z,7.4
2023-01-04T10:08:21.105Z,7.4
2023-01-04T10:09:29.653Z,7
2023-01-04T10:10:37.986Z,7
2023-01-04T10:11:46.324Z,7
2023-01-04T10:12:59.581Z,6.1
2023-01-04T10:14:03.215Z,6.1
2023-01-04T10:15:11.557Z,6.1
2023-01-04T10:16:25.416Z,7.7
2023-01-04T10:17:57.869Z,7.7
2023-01-04T10:21:23.526Z,7.2
2023-01-04T10:22:02.079Z,7.2
2023-01-04T10:23:10.568Z,6.6
2023-01-04T10:24:18.906Z,6.6
2023-01-04T10:25:27.247Z,6.6
2023-01-04T10:26:35.790Z,6.6
2023-01-04T10:27:44.117Z,6.6
2023-01-04T10:28:52.483Z,6.6
2023-01-04T10:30:01.006Z,5
2023-01-04T10:31:38.301Z,5
2023-01-04T10:32:17.716Z,5
2023-01-04T10:33:26.223Z,5.7
2023-01-04T10:34:34.567Z,5.7
2023-01-04T10:35:42.910Z,5.7
2023-01-04T10:36:51.475Z,5.7
2023-01-04T10:37:59.818Z,5.7
2023-01-04T10:39:08.165Z,5.7
2023-01-04T10:40:16.735Z,5.6
2023-01-04T10:41:25.101Z,5.6
2023-01-04T10:42:33.456Z,5.6
2023-01-04T10:44:10.435Z,5.5
2023-01-04T10:44:50.384Z,5.5
2023-01-04T10:45:58.708Z,5.5
2023-01-04T10:47:07.320Z,4.5
2023-01-04T10:48:15.609Z,4.5
2023-01-04T10:49:23.987Z,4.5
2023-01-04T10:50:32.534Z,3.5
2023-01-04T10:51:40.874Z,3.5
2023-01-04T10:52:49.230Z,3.5
2023-01-04T10:53:57.797Z,3.4
2023-01-04T10:55:06.124Z,3.4
2023-01-04T10:56:24.801Z,3.4
2023-01-04T10:57:23.021Z,3.6
2023-01-04T10:58:31.475Z,3.6
2023-01-04T10:59:39.845Z,3.6
2023-01-04T11:00:48.432Z,4
2023-01-04T11:01:56.886Z,4
2023-01-04T11:03:09.009Z,4
2023-01-04T11:04:13.611Z,4.7
2023-01-04T11:05:21.970Z,4.7
2023-01-04T11:06:30.304Z,4.7
2023-01-04T11:07:38.856Z,4.3
2023-01-04T11:08:47.189Z,4.3
2023-01-04T11:09:55.521Z,4.3
2023-01-04T11:11:04.085Z,3.4
2023-01-04T11:12:12.427Z,3.4
2023-01-04T11:13:20.796Z,3.4
2023-01-04T11:14:35.228Z,3.2
2023-01-04T11:15:38.022Z,3.2
2023-01-04T11:16:46.483Z,3.2
2023-01-04T11:17:54.972Z,3.3
2023-01-04T11:19:03.318Z,3.3
2023-01-04T11:20:11.667Z,3.3
2023-01-04T11:21:20.224Z,2.8
2023-01-04T11:22:28.619Z,2.8
2023-01-04T11:23:36.957Z,2.8
2023-01-04T11:25:00.590Z,4.3
2023-01-04T11:25:56.261Z,4.3
2023-01-04T11:27:02.289Z,4.3
2023-01-04T11:28:11.862Z,4.6
2023-01-04T11:29:19.235Z,4.6
2023-01-04T11:30:27.584Z,4.6
2023-01-04T11:31:36.174Z,3.3
2023-01-04T11:32:44.535Z,3.3
2023-01-04T11:33:52.869Z,3.3
2023-01-04T11:35:01.459Z,4.9
2023-01-04T11:36:10.139Z,4.9
2023-01-04T11:37:18.503Z,4.9
2023-01-04T11:38:27.086Z,4.4
2023-01-04T11:39:35.415Z,4.4
2023-01-04T11:40:43.772Z,4.4
2023-01-04T11:41:54.198Z,3.7
2023-01-04T11:43:00.710Z,3.7
2023-01-04T11:44:09.062Z,3.7
2023-01-04T11:45:17.631Z,4.8
2023-01-04T11:46:26.043Z,4.8
2023-01-04T11:47:34.352Z,4.8
2023-01-04T11:48:42.941Z,3.4
2023-01-04T11:49:51.240Z,3.4
2023-01-04T11:50:59.587Z,3.4
2023-01-04T11:52:08.141Z,4
2023-01-04T11:53:16.477Z,4
2023-01-04T11:54:24.886Z,4
2023-01-04T11:55:33.413Z,4.6
2023-01-04T11:56:41.757Z,4.6
2023-01-04T11:57:50.120Z,4.6
2023-01-04T11:58:58.675Z,6.4
2023-01-04T12:00:07.040Z,6.4
2023-01-04T12:01:15.397Z,6.4
2023-01-04T12:02:50.927Z,2.9
2023-01-04T12:03:32.306Z,2.9
2023-01-04T12:04:40.687Z,2.9
2023-01-04T12:05:49.215Z,3.7
2023-01-04T12:06:57.559Z,3.7
2023-01-04T12:08:05.925Z,3.7
2023-01-04T12:09:14.496Z,5.1
2023-01-04T12:10:22.821Z,5.1
2023-01-04T12:11:31.170Z,5.1
2023-01-04T12:12:39.705Z,9.9
2023-01-04T12:13:48.080Z,9.9
2023-01-04T12:14:56.447Z,9.9
2023-01-04T12:16:05.018Z,3.3
2023-01-04T12:17:13.381Z,3.3
2023-01-04T12:18:21.730Z,3.3
2023-01-04T12:19:30.286Z,2.6
2023-01-04T12:20:38.686Z,2.6
2023-01-04T12:21:47.046Z,2.6
2023-01-04T12:22:55.568Z,3.4
2023-01-04T12:24:03.914Z,3.4
2023-01-04T12:25:12.261Z,3.4
2023-01-04T12:26:20.820Z,2.8
2023-01-04T12:27:29.182Z,2.8
2023-01-04T12:28:37.563Z,2.8
2023-01-04T12:29:46.096Z,3.9
2023-01-04T12:30:54.464Z,3.9
2023-01-04T12:32:02.801Z,3.9
2023-01-04T12:33:11.351Z,3.6
2023-01-04T12:34:19.727Z,3.6
2023-01-04T12:35:28.083Z,3.6
2023-01-04T12:36:36.681Z,3.3
2023-01-04T12:37:45.006Z,3.3
2023-01-04T12:38:53.376Z,3.3
2023-01-04T12:40:01.925Z,3.1
2023-01-04T12:41:10.267Z,3.1
2023-01-04T12:42:18.617Z,3.1
2023-01-04T12:43:27.154Z,3.4
2023-01-04T12:44:35.521Z,3.4
2023-01-04T12:45:43.935Z,3.4
2023-01-04T12:46:52.423Z,3.2
2023-01-04T12:48:00.781Z,3.2
2023-01-04T12:49:09.126Z,3.2
2023-01-04T12:50:17.725Z,3
2023-01-04T12:51:34.010Z,3
2023-01-04T12:52:48.281Z,3
2023-01-04T12:53:43.010Z,8.6
2023-01-04T12:54:51.351Z,8.6
2023-01-04T12:55:59.704Z,8.6
2023-01-04T12:57:08.305Z,4.8
2023-01-04T12:58:16.639Z,4.8
2023-01-04T12:59:26.027Z,4.8
2023-01-04T13:00:33.545Z,3.8
2023-01-04T13:01:42.076Z,3.8
2023-01-04T13:02:50.465Z,3.8
2023-01-04T13:04:04.526Z,3.3
2023-01-04T13:05:53.931Z,3.3
2023-01-04T13:06:15.546Z,3.3
2023-01-04T13:07:24.106Z,3.2
2023-01-04T13:08:32.493Z,3.2
2023-01-04T13:09:44.690Z,3.2
2023-01-04T13:10:49.374Z,4.1
2023-01-04T13:11:57.719Z,4.1
2023-01-04T13:13:06.076Z,4.1
2023-01-04T13:14:14.637Z,2.7
2023-01-04T13:15:22.979Z,2.7
2023-01-04T13:16:31.352Z,2.7
2023-01-04T13:17:39.895Z,4.3
2023-01-04T13:18:48.313Z,4.3
2023-01-04T13:19:56.663Z,4.3
2023-01-04T13:21:05.216Z,2.3
2023-01-04T13:22:13.558Z,2.3
2023-01-04T13:23:21.917Z,2.3
2023-01-04T13:24:30.568Z,1.7
2023-01-04T13:25:38.852Z,1.7
2023-01-04T13:26:47.204Z,1.7
2023-01-04T13:27:55.768Z,1.9
2023-01-04T13:29:04.113Z,1.9
2023-01-04T13:30:12.455Z,1.9
2023-01-04T13:31:21.081Z,1.9
2023-01-04T13:32:29.388Z,1.9
2023-01-04T13:33:37.717Z,1.9
2023-01-04T13:34:46.283Z,1.7
2023-01-04T13:35:54.619Z,1.7
2023-01-04T13:37:02.997Z,1.7
2023-01-04T13:38:11.541Z,3.3
2023-01-04T13:39:19.912Z,3.3
2023-01-04T13:40:28.294Z,3.3
2023-01-04T13:41:36.826Z,2.6
2023-01-04T13:42:45.158Z,2.6
2023-01-04T13:43:53.859Z,2.6
2023-01-04T13:45:19.412Z,2.6
2023-01-04T13:46:10.855Z,2.6
2023-01-04T13:47:19.160Z,2.6
2023-01-04T13:48:27.751Z,2.9
2023-01-04T13:49:36.084Z,2.9
2023-01-04T13:50:44.455Z,2.9
2023-01-04T13:52:01.267Z,2.1
2023-01-04T13:53:07.288Z,2.1
2023-01-04T13:54:09.734Z,2.1
2023-01-04T13:55:18.287Z,2.9
2023-01-04T13:57:59.930Z,2.9
2023-01-04T13:59:08.490Z,4.8
2023-01-04T14:00:16.816Z,4.8
2023-01-04T14:01:25.281Z,4.8
2023-01-04T14:02:33.879Z,6.6
2023-01-04T14:03:42.163Z,6.6
2023-01-04T14:04:50.500Z,6.6
2023-01-04T14:06:02.971Z,2.7
2023-01-04T14:07:07.375Z,2.7
2023-01-04T14:08:15.798Z,2.7
2023-01-04T14:09:24.365Z,4.7
2023-01-04T14:10:32.728Z,4.7
2023-01-04T14:11:41.084Z,4.7
2023-01-04T14:12:49.641Z,3.2
2023-01-04T14:13:58.011Z,3.2
2023-01-04T14:15:06.347Z,3.2
2023-01-04T14:16:14.923Z,3.9
2023-01-04T14:17:23.271Z,3.9
2023-01-04T14:18:31.662Z,3.9
2023-01-04T14:19:40.280Z,1.9
2023-01-04T14:20:48.586Z,1.9
2023-01-04T14:21:56.948Z,1.9
2023-01-04T14:23:05.499Z,2.4
2023-01-04T14:24:18.640Z,2.4
2023-01-04T14:25:22.263Z,2.4
2023-01-04T14:26:30.834Z,2.8
2023-01-04T14:27:39.199Z,2.8
2023-01-04T14:29:56.123Z,3.8
2023-01-04T15:03:49.474Z,0
2023-01-04T15:04:57.756Z,0
2023-01-04T15:06:06.119Z,0
2023-01-04T15:07:14.689Z,2.2
2023-01-04T15:08:23.003Z,2.2
2023-01-04T15:09:31.381Z,2.2
2023-01-04T15:10:39.961Z,2.5
2023-01-04T15:11:48.280Z,2.5
2023-01-04T15:12:56.669Z,2.5
2023-01-04T15:14:05.236Z,2.5
2023-01-04T15:15:13.585Z,2.5
2023-01-04T15:16:22.069Z,2.5
2023-01-04T15:17:30.538Z,1.7
2023-01-04T15:18:38.943Z,1.7
2023-01-04T15:19:47.326Z,1.7
2023-01-04T15:20:55.847Z,2.8
2023-01-04T15:22:04.178Z,2.8
2023-01-04T15:23:12.534Z,2.8
2023-01-04T15:24:21.125Z,1.8
2023-01-04T15:25:29.465Z,1.8
2023-01-04T15:26:37.855Z,1.8
2023-01-04T15:27:46.403Z,1.3
2023-01-04T15:28:54.767Z,1.3
2023-01-04T15:30:03.122Z,1.3
2023-01-04T15:31:11.730Z,2.4
2023-01-04T15:32:20.104Z,2.4
2023-01-04T15:33:28.393Z,2.4
2023-01-04T15:34:39.523Z,3.7
2023-01-04T15:35:45.418Z,3.7
2023-01-04T15:36:53.784Z,3.7
2023-01-04T15:38:05.098Z,3.5
2023-01-04T15:39:10.689Z,3.5
2023-01-04T15:40:19.045Z,3.5
2023-01-04T15:41:27.622Z,9.8
2023-01-04T15:42:35.974Z,9.8
2023-01-04T15:43:44.327Z,9.8
2023-01-04T15:44:52.920Z,38.900002
2023-01-04T15:46:01.276Z,38.900002
2023-01-04T15:47:09.689Z,38.900002
2023-01-04T15:48:18.233Z,1.6
2023-01-04T15:49:26.576Z,1.6
2023-01-04T15:50:34.927Z,1.6
2023-01-04T15:51:43.504Z,26.6
2023-01-04T15:52:51.825Z,26.6
2023-01-04T15:54:00.208Z,26.6
2023-01-04T15:55:08.751Z,14.3
2023-01-04T15:56:17.078Z,14.3
2023-01-04T15:57:25.439Z,14.3
2023-01-04T15:58:34.034Z,7.8
2023-01-04T15:59:42.382Z,7.8
2023-01-04T16:00:57.552Z,7.8
2023-01-04T16:01:59.629Z,2.2
2023-01-04T16:03:07.917Z,2.2
2023-01-04T16:04:16.269Z,2.2
2023-01-04T16:05:24.833Z,6.8
2023-01-04T16:06:33.182Z,6.8
2023-01-04T16:07:41.529Z,6.8
2023-01-04T16:08:50.114Z,1.7
2023-01-04T16:09:58.477Z,1.7
2023-01-04T16:11:06.849Z,1.7
2023-01-04T16:12:15.567Z,2.4
2023-01-04T16:13:23.979Z,2.4